sensor_id;sensor_type;location;lat;lon;timestamp;P1;durP1;ratioP1;P2;durP2;ratioP2
72864;SDS011;61000;48.120;11.548;2022-12-01T00:00:01;53.40;;;24.20;;
72864;SDS011;61000;48.120;11.548;2022-12-01T00:02:30;51.13;;;23.77;;
72864;SDS011;61000;48.120;11.548;2022-12-01T00:04:56;49.22;;;22.83;;
72864;SDS011;61000;48.120;11.548;2022-12-01T00:07:23;56.45;;;24.67;;
72864;SDS011;61000;48.120;11.548;2022-12-01T00:09:51;48.58;;;23.25;;
72864;SDS011;61000;48.120;11.548;2022-12-01T00:12:36;53.65;;;24.85;;
72864;SDS011;61000;48.120;11.548;2022-12-01T00:15:07;50.30;;;23.42;;
72864;SDS011;61000;48.120;11.548;2022-12-01T00:17:35;46.05;;;23.27;;
72864;SDS011;61000;48.120;11.548;2022-12-01T00:20:02;50.63;;;23.27;;
72864;SDS011;61000;48.120;11.548;2022-12-01T00:22:30;45.25;;;21.52;;
72864;SDS011;61000;48.120;11.548;2022-12-01T00:24:58;47.67;;;23.58;;
72864;SDS011;61000;48.120;11.548;2022-12-01T00:27:25;47.28;;;24.73;;
72864;SDS011;61000;48.120;11.548;2022-12-01T00:29:52;45.40;;;21.48;;
72864;SDS011;61000;48.120;11.548;2022-12-01T00:32:19;46.17;;;22.23;;
72864;SDS011;61000;48.120;11.548;2022-12-01T00:34:46;48.35;;;23.10;;
72864;SDS011;61000;48.120;11.548;2022-12-01T00:37:13;48.10;;;22.38;;
72864;SDS011;61000;48.120;11.548;2022-12-01T00:39:40;48.10;;;22.52;;
72864;SDS011;61000;48.120;11.548;2022-12-01T00:42:08;48.22;;;23.92;;
72864;SDS011;61000;48.120;11.548;2022-12-01T00:44:35;44.95;;;22.23;;
72864;SDS011;61000;48.120;11.548;2022-12-01T00:47:02;46.53;;;22.17;;
72864;SDS011;61000;48.120;11.548;2022-12-01T00:49:29;47.35;;;23.08;;
72864;SDS011;61000;48.120;11.548;2022-12-01T00:51:56;44.78;;;21.33;;
72864;SDS011;61000;48.120;11.548;2022-12-01T00:54:23;46.35;;;21.40;;
72864;SDS011;61000;48.120;11.548;2022-12-01T00:56:50;49.97;;;23.13;;
72864;SDS011;61000;48.120;11.548;2022-12-01T00:59:18;51.47;;;23.15;;
72864;SDS011;61000;48.120;11.548;2022-12-01T01:01:45;50.95;;;23.88;;
72864;SDS011;61000;48.120;11.548;2022-12-01T01:04:12;55.97;;;23.55;;
72864;SDS011;61000;48.120;11.548;2022-12-01T01:06:39;50.35;;;23.35;;
72864;SDS011;61000;48.120;11.548;2022-12-01T01:09:07;48.00;;;22.42;;
72864;SDS011;61000;48.120;11.548;2022-12-01T01:11:34;45.45;;;22.45;;
72864;SDS011;61000;48.120;11.548;2022-12-01T01:14:01;40.70;;;21.63;;
72864;SDS011;61000;48.120;11.548;2022-12-01T01:16:30;41.38;;;21.35;;
72864;SDS011;61000;48.120;11.548;2022-12-01T01:18:57;39.03;;;20.30;;
72864;SDS011;61000;48.120;11.548;2022-12-01T01:21:24;42.05;;;20.50;;
72864;SDS011;61000;48.120;11.548;2022-12-01T01:23:51;42.92;;;20.77;;
72864;SDS011;61000;48.120;11.548;2022-12-01T01:26:20;43.85;;;20.25;;
72864;SDS011;61000;48.120;11.548;2022-12-01T01:28:49;43.45;;;20.75;;
72864;SDS011;61000;48.120;11.548;2022-12-01T01:31:17;40.70;;;19.50;;
72864;SDS011;61000;48.120;11.548;2022-12-01T01:33:47;42.95;;;20.15;;
72864;SDS011;61000;48.120;11.548;2022-12-01T01:36:14;44.65;;;20.85;;
72864;SDS011;61000;48.120;11.548;2022-12-01T01:38:42;42.53;;;19.95;;
72864;SDS011;61000;48.120;11.548;2022-12-01T01:41:10;42.95;;;20.60;;
72864;SDS011;61000;48.120;11.548;2022-12-01T01:43:38;38.08;;;19.65;;
72864;SDS011;61000;48.120;11.548;2022-12-01T01:46:07;46.25;;;21.27;;
72864;SDS011;61000;48.120;11.548;2022-12-01T01:48:36;41.25;;;20.17;;
72864;SDS011;61000;48.120;11.548;2022-12-01T01:51:06;43.45;;;21.60;;
72864;SDS011;61000;48.120;11.548;2022-12-01T01:53:34;44.97;;;21.05;;
72864;SDS011;61000;48.120;11.548;2022-12-01T01:56:02;40.08;;;19.35;;
72864;SDS011;61000;48.120;11.548;2022-12-01T01:58:29;49.00;;;21.40;;
72864;SDS011;61000;48.120;11.548;2022-12-01T02:00:58;44.50;;;19.88;;
72864;SDS011;61000;48.120;11.548;2022-12-01T02:03:25;44.42;;;20.02;;
72864;SDS011;61000;48.120;11.548;2022-12-01T02:05:54;46.20;;;21.77;;
72864;SDS011;61000;48.120;11.548;2022-12-01T02:08:23;49.63;;;22.58;;
72864;SDS011;61000;48.120;11.548;2022-12-01T02:11:06;46.00;;;20.95;;
72864;SDS011;61000;48.120;11.548;2022-12-01T02:13:59;48.25;;;22.20;;
72864;SDS011;61000;48.120;11.548;2022-12-01T02:16:36;48.28;;;20.80;;
72864;SDS011;61000;48.120;11.548;2022-12-01T02:19:23;51.58;;;23.73;;
72864;SDS011;61000;48.120;11.548;2022-12-01T02:22:13;50.38;;;20.23;;
72864;SDS011;61000;48.120;11.548;2022-12-01T02:24:52;46.20;;;20.60;;
72864;SDS011;61000;48.120;11.548;2022-12-01T02:27:51;56.33;;;23.60;;
72864;SDS011;61000;48.120;11.548;2022-12-01T02:30:35;50.25;;;22.02;;
72864;SDS011;61000;48.120;11.548;2022-12-01T02:33:06;54.28;;;21.92;;
72864;SDS011;61000;48.120;11.548;2022-12-01T02:35:40;50.10;;;21.65;;
72864;SDS011;61000;48.120;11.548;2022-12-01T02:38:13;52.47;;;22.15;;
72864;SDS011;61000;48.120;11.548;2022-12-01T02:40:50;57.28;;;23.30;;
72864;SDS011;61000;48.120;11.548;2022-12-01T02:43:22;56.42;;;22.33;;
72864;SDS011;61000;48.120;11.548;2022-12-01T02:45:56;64.35;;;24.83;;
72864;SDS011;61000;48.120;11.548;2022-12-01T02:48:28;59.38;;;24.55;;
72864;SDS011;61000;48.120;11.548;2022-12-01T02:50:59;66.80;;;27.67;;
72864;SDS011;61000;48.120;11.548;2022-12-01T02:53:31;68.75;;;26.65;;
72864;SDS011;61000;48.120;11.548;2022-12-01T02:55:59;66.40;;;25.23;;
72864;SDS011;61000;48.120;11.548;2022-12-01T02:58:26;68.30;;;24.65;;
72864;SDS011;61000;48.120;11.548;2022-12-01T03:01:01;66.03;;;26.58;;
72864;SDS011;61000;48.120;11.548;2022-12-01T03:03:39;61.05;;;25.73;;
72864;SDS011;61000;48.120;11.548;2022-12-01T03:06:20;55.65;;;24.88;;
72864;SDS011;61000;48.120;11.548;2022-12-01T03:08:56;59.92;;;24.02;;
72864;SDS011;61000;48.120;11.548;2022-12-01T03:11:33;62.20;;;25.80;;
72864;SDS011;61000;48.120;11.548;2022-12-01T03:14:12;70.03;;;26.00;;
72864;SDS011;61000;48.120;11.548;2022-12-01T03:16:48;61.67;;;25.52;;
72864;SDS011;61000;48.120;11.548;2022-12-01T03:19:18;65.25;;;25.70;;
72864;SDS011;61000;48.120;11.548;2022-12-01T03:21:51;64.45;;;24.50;;
72864;SDS011;61000;48.120;11.548;2022-12-01T03:24:24;70.57;;;28.17;;
72864;SDS011;61000;48.120;11.548;2022-12-01T03:26:54;59.55;;;26.88;;
72864;SDS011;61000;48.120;11.548;2022-12-01T03:29:24;69.85;;;27.65;;
72864;SDS011;61000;48.120;11.548;2022-12-01T03:31:58;74.45;;;26.63;;
72864;SDS011;61000;48.120;11.548;2022-12-01T03:34:30;72.03;;;27.88;;
72864;SDS011;61000;48.120;11.548;2022-12-01T03:37:02;61.30;;;24.90;;
72864;SDS011;61000;48.120;11.548;2022-12-01T03:39:33;66.43;;;25.95;;
72864;SDS011;61000;48.120;11.548;2022-12-01T03:42:02;67.20;;;25.20;;
72864;SDS011;61000;48.120;11.548;2022-12-01T03:44:38;63.50;;;26.20;;
72864;SDS011;61000;48.120;11.548;2022-12-01T03:47:11;66.35;;;24.95;;
72864;SDS011;61000;48.120;11.548;2022-12-01T03:49:40;62.40;;;24.63;;
72864;SDS011;61000;48.120;11.548;2022-12-01T03:52:10;66.05;;;25.08;;
72864;SDS011;61000;48.120;11.548;2022-12-01T03:54:45;67.40;;;25.48;;
72864;SDS011;61000;48.120;11.548;2022-12-01T03:57:23;67.13;;;23.73;;
72864;SDS011;61000;48.120;11.548;2022-12-01T03:59:54;72.43;;;25.95;;
72864;SDS011;61000;48.120;11.548;2022-12-01T04:02:22;62.33;;;26.42;;
72864;SDS011;61000;48.120;11.548;2022-12-01T04:04:51;61.00;;;25.00;;
72864;SDS011;61000;48.120;11.548;2022-12-01T04:07:19;61.70;;;25.20;;
72864;SDS011;61000;48.120;11.548;2022-12-01T04:09:46;66.20;;;24.38;;
72864;SDS011;61000;48.120;11.548;2022-12-01T04:12:14;63.95;;;27.05;;
72864;SDS011;61000;48.120;11.548;2022-12-01T04:14:57;59.30;;;25.40;;
72864;SDS011;61000;48.120;11.548;2022-12-01T04:17:26;67.43;;;25.70;;
72864;SDS011;61000;48.120;11.548;2022-12-01T04:19:54;65.18;;;25.05;;
72864;SDS011;61000;48.120;11.548;2022-12-01T04:22:21;68.75;;;27.63;;
72864;SDS011;61000;48.120;11.548;2022-12-01T04:24:48;65.97;;;26.83;;
72864;SDS011;61000;48.120;11.548;2022-12-01T04:27:15;53.13;;;25.15;;
72864;SDS011;61000;48.120;11.548;2022-12-01T04:29:42;64.25;;;23.50;;
72864;SDS011;61000;48.120;11.548;2022-12-01T04:32:09;60.25;;;24.23;;
72864;SDS011;61000;48.120;11.548;2022-12-01T04:34:38;63.00;;;25.73;;
72864;SDS011;61000;48.120;11.548;2022-12-01T04:37:05;68.20;;;25.35;;
72864;SDS011;61000;48.120;11.548;2022-12-01T04:39:32;70.30;;;26.00;;
72864;SDS011;61000;48.120;11.548;2022-12-01T04:41:59;62.80;;;23.98;;
72864;SDS011;61000;48.120;11.548;2022-12-01T04:44:25;62.13;;;26.23;;
72864;SDS011;61000;48.120;11.548;2022-12-01T04:46:52;71.13;;;27.50;;
72864;SDS011;61000;48.120;11.548;2022-12-01T04:49:20;65.35;;;25.23;;
72864;SDS011;61000;48.120;11.548;2022-12-01T04:51:48;61.17;;;24.50;;
72864;SDS011;61000;48.120;11.548;2022-12-01T04:54:15;61.55;;;25.00;;
72864;SDS011;61000;48.120;11.548;2022-12-01T04:56:43;60.42;;;24.52;;
72864;SDS011;61000;48.120;11.548;2022-12-01T04:59:10;70.47;;;26.58;;
72864;SDS011;61000;48.120;11.548;2022-12-01T05:01:37;59.78;;;24.95;;
72864;SDS011;61000;48.120;11.548;2022-12-01T05:04:04;66.55;;;24.20;;
72864;SDS011;61000;48.120;11.548;2022-12-01T05:06:31;57.53;;;23.70;;
72864;SDS011;61000;48.120;11.548;2022-12-01T05:09:00;57.67;;;23.45;;
72864;SDS011;61000;48.120;11.548;2022-12-01T05:11:29;54.83;;;22.88;;
72864;SDS011;61000;48.120;11.548;2022-12-01T05:13:57;52.20;;;22.80;;
72864;SDS011;61000;48.120;11.548;2022-12-01T05:16:25;62.05;;;24.70;;
72864;SDS011;61000;48.120;11.548;2022-12-01T05:18:55;64.20;;;24.17;;
72864;SDS011;61000;48.120;11.548;2022-12-01T05:21:37;57.67;;;23.23;;
72864;SDS011;61000;48.120;11.548;2022-12-01T05:24:06;57.67;;;23.38;;
72864;SDS011;61000;48.120;11.548;2022-12-01T05:26:33;57.33;;;23.45;;
72864;SDS011;61000;48.120;11.548;2022-12-01T05:29:00;54.10;;;23.30;;
72864;SDS011;61000;48.120;11.548;2022-12-01T05:31:27;51.67;;;22.88;;
72864;SDS011;61000;48.120;11.548;2022-12-01T05:33:54;64.85;;;23.83;;
72864;SDS011;61000;48.120;11.548;2022-12-01T05:36:21;47.97;;;21.40;;
72864;SDS011;61000;48.120;11.548;2022-12-01T05:38:48;47.17;;;22.20;;
72864;SDS011;61000;48.120;11.548;2022-12-01T05:41:16;48.08;;;21.38;;
72864;SDS011;61000;48.120;11.548;2022-12-01T05:43:43;50.60;;;22.70;;
72864;SDS011;61000;48.120;11.548;2022-12-01T05:46:10;49.03;;;21.77;;
72864;SDS011;61000;48.120;11.548;2022-12-01T05:48:37;48.80;;;20.95;;
72864;SDS011;61000;48.120;11.548;2022-12-01T05:51:07;47.03;;;21.17;;
72864;SDS011;61000;48.120;11.548;2022-12-01T05:53:35;56.00;;;23.48;;
72864;SDS011;61000;48.120;11.548;2022-12-01T05:56:03;53.63;;;22.23;;
72864;SDS011;61000;48.120;11.548;2022-12-01T05:58:31;53.95;;;22.50;;
72864;SDS011;61000;48.120;11.548;2022-12-01T06:00:58;51.22;;;22.77;;
72864;SDS011;61000;48.120;11.548;2022-12-01T06:03:26;45.45;;;22.05;;
72864;SDS011;61000;48.120;11.548;2022-12-01T06:05:52;51.30;;;22.88;;
72864;SDS011;61000;48.120;11.548;2022-12-01T06:08:19;53.75;;;23.08;;
72864;SDS011;61000;48.120;11.548;2022-12-01T06:10:46;57.55;;;23.33;;
72864;SDS011;61000;48.120;11.548;2022-12-01T06:13:13;48.17;;;21.67;;
72864;SDS011;61000;48.120;11.548;2022-12-01T06:15:42;52.38;;;22.52;;
72864;SDS011;61000;48.120;11.548;2022-12-01T06:18:09;45.17;;;22.75;;
72864;SDS011;61000;48.120;11.548;2022-12-01T06:20:35;54.17;;;21.45;;
72864;SDS011;61000;48.120;11.548;2022-12-01T06:23:02;46.30;;;21.05;;
72864;SDS011;61000;48.120;11.548;2022-12-01T06:25:31;43.72;;;22.02;;
72864;SDS011;61000;48.120;11.548;2022-12-01T06:28:00;54.15;;;22.77;;
72864;SDS011;61000;48.120;11.548;2022-12-01T06:30:27;56.28;;;24.67;;
72864;SDS011;61000;48.120;11.548;2022-12-01T06:32:55;60.10;;;22.10;;
72864;SDS011;61000;48.120;11.548;2022-12-01T06:35:22;53.13;;;23.65;;
72864;SDS011;61000;48.120;11.548;2022-12-01T06:37:49;52.38;;;23.42;;
72864;SDS011;61000;48.120;11.548;2022-12-01T06:40:18;54.70;;;23.20;;
72864;SDS011;61000;48.120;11.548;2022-12-01T06:42:45;55.03;;;24.20;;
72864;SDS011;61000;48.120;11.548;2022-12-01T06:45:12;54.00;;;23.58;;
72864;SDS011;61000;48.120;11.548;2022-12-01T06:47:39;49.78;;;21.75;;
72864;SDS011;61000;48.120;11.548;2022-12-01T06:50:08;51.90;;;22.55;;
72864;SDS011;61000;48.120;11.548;2022-12-01T06:52:36;56.72;;;22.95;;
72864;SDS011;61000;48.120;11.548;2022-12-01T06:55:03;48.17;;;22.17;;
72864;SDS011;61000;48.120;11.548;2022-12-01T06:57:31;49.60;;;22.35;;
72864;SDS011;61000;48.120;11.548;2022-12-01T06:59:58;47.22;;;21.35;;
72864;SDS011;61000;48.120;11.548;2022-12-01T07:02:25;47.83;;;21.55;;
72864;SDS011;61000;48.120;11.548;2022-12-01T07:04:51;46.40;;;20.33;;
72864;SDS011;61000;48.120;11.548;2022-12-01T07:07:20;45.08;;;21.48;;
72864;SDS011;61000;48.120;11.548;2022-12-01T07:09:47;39.97;;;18.92;;
72864;SDS011;61000;48.120;11.548;2022-12-01T07:12:13;45.58;;;20.02;;
72864;SDS011;61000;48.120;11.548;2022-12-01T07:14:40;40.50;;;19.20;;
72864;SDS011;61000;48.120;11.548;2022-12-01T07:17:07;38.80;;;18.55;;
72864;SDS011;61000;48.120;11.548;2022-12-01T07:19:34;44.22;;;19.15;;
72864;SDS011;61000;48.120;11.548;2022-12-01T07:22:01;44.25;;;19.52;;
72864;SDS011;61000;48.120;11.548;2022-12-01T07:24:30;47.22;;;20.23;;
72864;SDS011;61000;48.120;11.548;2022-12-01T07:26:57;43.47;;;19.58;;
72864;SDS011;61000;48.120;11.548;2022-12-01T07:29:24;42.10;;;20.25;;
72864;SDS011;61000;48.120;11.548;2022-12-01T07:31:51;43.10;;;19.67;;
72864;SDS011;61000;48.120;11.548;2022-12-01T07:34:18;43.30;;;19.20;;
72864;SDS011;61000;48.120;11.548;2022-12-01T07:36:45;50.92;;;20.52;;
72864;SDS011;61000;48.120;11.548;2022-12-01T07:39:12;38.88;;;18.35;;
72864;SDS011;61000;48.120;11.548;2022-12-01T07:41:40;50.28;;;21.30;;
72864;SDS011;61000;48.120;11.548;2022-12-01T07:44:08;47.70;;;20.92;;
72864;SDS011;61000;48.120;11.548;2022-12-01T07:46:35;43.10;;;18.83;;
72864;SDS011;61000;48.120;11.548;2022-12-01T07:49:03;48.20;;;20.13;;
72864;SDS011;61000;48.120;11.548;2022-12-01T07:51:31;46.53;;;20.55;;
72864;SDS011;61000;48.120;11.548;2022-12-01T07:54:00;51.85;;;23.17;;
72864;SDS011;61000;48.120;11.548;2022-12-01T07:56:28;49.13;;;20.20;;
72864;SDS011;61000;48.120;11.548;2022-12-01T07:58:57;47.92;;;21.15;;
72864;SDS011;61000;48.120;11.548;2022-12-01T08:01:24;45.55;;;20.38;;
72864;SDS011;61000;48.120;11.548;2022-12-01T08:03:51;42.60;;;20.27;;
72864;SDS011;61000;48.120;11.548;2022-12-01T08:06:21;43.55;;;20.67;;
72864;SDS011;61000;48.120;11.548;2022-12-01T08:08:48;47.95;;;20.73;;
72864;SDS011;61000;48.120;11.548;2022-12-01T08:11:16;45.00;;;21.40;;
72864;SDS011;61000;48.120;11.548;2022-12-01T08:13:46;38.90;;;19.48;;
72864;SDS011;61000;48.120;11.548;2022-12-01T08:16:15;43.88;;;20.48;;
72864;SDS011;61000;48.120;11.548;2022-12-01T08:18:43;44.75;;;20.83;;
72864;SDS011;61000;48.120;11.548;2022-12-01T08:21:11;48.75;;;22.27;;
72864;SDS011;61000;48.120;11.548;2022-12-01T08:23:39;49.83;;;21.92;;
72864;SDS011;61000;48.120;11.548;2022-12-01T08:26:07;52.80;;;21.27;;
72864;SDS011;61000;48.120;11.548;2022-12-01T08:28:38;50.22;;;21.00;;
72864;SDS011;61000;48.120;11.548;2022-12-01T08:31:06;48.30;;;22.10;;
72864;SDS011;61000;48.120;11.548;2022-12-01T08:33:36;50.55;;;21.17;;
72864;SDS011;61000;48.120;11.548;2022-12-01T08:36:03;45.97;;;22.13;;
72864;SDS011;61000;48.120;11.548;2022-12-01T08:38:31;44.58;;;20.88;;
72864;SDS011;61000;48.120;11.548;2022-12-01T08:40:58;46.50;;;20.05;;
72864;SDS011;61000;48.120;11.548;2022-12-01T08:43:26;42.03;;;20.95;;
72864;SDS011;61000;48.120;11.548;2022-12-01T08:45:53;43.42;;;19.55;;
72864;SDS011;61000;48.120;11.548;2022-12-01T08:48:23;54.38;;;20.60;;
72864;SDS011;61000;48.120;11.548;2022-12-01T08:50:51;46.63;;;21.52;;
72864;SDS011;61000;48.120;11.548;2022-12-01T08:53:25;49.17;;;21.05;;
72864;SDS011;61000;48.120;11.548;2022-12-01T08:55:52;45.53;;;19.63;;
72864;SDS011;61000;48.120;11.548;2022-12-01T08:58:19;53.20;;;22.80;;
72864;SDS011;61000;48.120;11.548;2022-12-01T09:00:46;41.03;;;20.73;;
72864;SDS011;61000;48.120;11.548;2022-12-01T09:03:13;53.35;;;20.77;;
72864;SDS011;61000;48.120;11.548;2022-12-01T09:05:40;45.03;;;20.65;;
72864;SDS011;61000;48.120;11.548;2022-12-01T09:08:08;45.13;;;21.65;;
72864;SDS011;61000;48.120;11.548;2022-12-01T09:10:53;51.88;;;21.88;;
72864;SDS011;61000;48.120;11.548;2022-12-01T09:13:19;47.97;;;22.02;;
72864;SDS011;61000;48.120;11.548;2022-12-01T09:15:53;48.58;;;21.50;;
72864;SDS011;61000;48.120;11.548;2022-12-01T09:18:20;45.42;;;19.33;;
72864;SDS011;61000;48.120;11.548;2022-12-01T09:20:47;44.70;;;21.58;;
72864;SDS011;61000;48.120;11.548;2022-12-01T09:23:15;44.53;;;21.40;;
72864;SDS011;61000;48.120;11.548;2022-12-01T09:25:42;46.55;;;21.20;;
72864;SDS011;61000;48.120;11.548;2022-12-01T09:28:09;43.70;;;19.52;;
72864;SDS011;61000;48.120;11.548;2022-12-01T09:30:36;40.17;;;19.55;;
72864;SDS011;61000;48.120;11.548;2022-12-01T09:33:03;38.97;;;19.40;;
72864;SDS011;61000;48.120;11.548;2022-12-01T09:35:30;42.72;;;20.45;;
72864;SDS011;61000;48.120;11.548;2022-12-01T09:37:57;44.00;;;20.40;;
72864;SDS011;61000;48.120;11.548;2022-12-01T09:40:34;43.60;;;19.88;;
72864;SDS011;61000;48.120;11.548;2022-12-01T09:43:04;40.63;;;21.15;;
72864;SDS011;61000;48.120;11.548;2022-12-01T09:45:36;43.63;;;19.35;;
72864;SDS011;61000;48.120;11.548;2022-12-01T09:48:08;40.00;;;19.98;;
72864;SDS011;61000;48.120;11.548;2022-12-01T09:50:41;41.78;;;19.13;;
72864;SDS011;61000;48.120;11.548;2022-12-01T09:53:18;41.80;;;20.05;;
72864;SDS011;61000;48.120;11.548;2022-12-01T09:55:49;54.75;;;20.05;;
72864;SDS011;61000;48.120;11.548;2022-12-01T09:58:17;43.67;;;18.77;;
72864;SDS011;61000;48.120;11.548;2022-12-01T10:00:46;46.72;;;21.13;;
72864;SDS011;61000;48.120;11.548;2022-12-01T10:03:16;41.95;;;19.00;;
72864;SDS011;61000;48.120;11.548;2022-12-01T10:05:53;40.20;;;18.55;;
72864;SDS011;61000;48.120;11.548;2022-12-01T10:08:23;44.55;;;20.35;;
72864;SDS011;61000;48.120;11.548;2022-12-01T10:10:57;39.03;;;18.75;;
72864;SDS011;61000;48.120;11.548;2022-12-01T10:13:30;40.80;;;18.42;;
72864;SDS011;61000;48.120;11.548;2022-12-01T10:16:01;43.83;;;20.90;;
72864;SDS011;61000;48.120;11.548;2022-12-01T10:18:35;36.75;;;18.50;;
72864;SDS011;61000;48.120;11.548;2022-12-01T10:21:23;49.78;;;22.38;;
72864;SDS011;61000;48.120;11.548;2022-12-01T10:26:53;41.58;;;19.25;;
72864;SDS011;61000;48.120;11.548;2022-12-01T10:29:27;34.55;;;18.75;;
72864;SDS011;61000;48.120;11.548;2022-12-01T10:32:02;41.75;;;20.98;;
72864;SDS011;61000;48.120;11.548;2022-12-01T10:34:37;40.33;;;18.88;;
72864;SDS011;61000;48.120;11.548;2022-12-01T10:37:08;38.53;;;19.42;;
72864;SDS011;61000;48.120;11.548;2022-12-01T10:39:42;42.53;;;19.90;;
72864;SDS011;61000;48.120;11.548;2022-12-01T10:42:13;39.42;;;18.63;;
72864;SDS011;61000;48.120;11.548;2022-12-01T10:44:44;37.17;;;18.02;;
72864;SDS011;61000;48.120;11.548;2022-12-01T10:47:14;34.17;;;17.88;;
72864;SDS011;61000;48.120;11.548;2022-12-01T10:49:44;38.08;;;17.63;;
72864;SDS011;61000;48.120;11.548;2022-12-01T10:52:31;37.20;;;18.90;;
72864;SDS011;61000;48.120;11.548;2022-12-01T10:55:00;44.35;;;19.52;;
72864;SDS011;61000;48.120;11.548;2022-12-01T10:57:31;39.33;;;18.67;;
72864;SDS011;61000;48.120;11.548;2022-12-01T10:59:59;50.75;;;21.50;;
72864;SDS011;61000;48.120;11.548;2022-12-01T11:02:27;41.58;;;20.23;;
72864;SDS011;61000;48.120;11.548;2022-12-01T11:04:56;37.60;;;18.00;;
72864;SDS011;61000;48.120;11.548;2022-12-01T11:07:26;38.40;;;17.73;;
72864;SDS011;61000;48.120;11.548;2022-12-01T11:09:59;35.08;;;17.27;;
72864;SDS011;61000;48.120;11.548;2022-12-01T11:12:32;38.25;;;18.45;;
72864;SDS011;61000;48.120;11.548;2022-12-01T11:14:59;85.30;;;36.33;;
72864;SDS011;61000;48.120;11.548;2022-12-01T11:17:31;46.90;;;23.55;;
72864;SDS011;61000;48.120;11.548;2022-12-01T11:20:19;35.38;;;18.23;;
72864;SDS011;61000;48.120;11.548;2022-12-01T11:23:01;40.08;;;18.90;;
72864;SDS011;61000;48.120;11.548;2022-12-01T11:26:02;36.08;;;17.35;;
72864;SDS011;61000;48.120;11.548;2022-12-01T11:28:35;44.95;;;17.70;;
72864;SDS011;61000;48.120;11.548;2022-12-01T11:31:07;36.75;;;17.88;;
72864;SDS011;61000;48.120;11.548;2022-12-01T11:33:38;40.65;;;18.02;;
72864;SDS011;61000;48.120;11.548;2022-12-01T11:36:13;39.42;;;17.83;;
72864;SDS011;61000;48.120;11.548;2022-12-01T11:38:49;42.22;;;19.58;;
72864;SDS011;61000;48.120;11.548;2022-12-01T11:41:24;39.33;;;20.17;;
72864;SDS011;61000;48.120;11.548;2022-12-01T11:43:56;36.70;;;18.10;;
72864;SDS011;61000;48.120;11.548;2022-12-01T11:46:27;34.42;;;18.15;;
72864;SDS011;61000;48.120;11.548;2022-12-01T11:48:57;37.40;;;17.40;;
72864;SDS011;61000;48.120;11.548;2022-12-01T11:51:26;44.38;;;20.75;;
72864;SDS011;61000;48.120;11.548;2022-12-01T11:54:03;43.03;;;21.75;;
72864;SDS011;61000;48.120;11.548;2022-12-01T11:56:41;41.20;;;17.95;;
72864;SDS011;61000;48.120;11.548;2022-12-01T11:59:12;39.47;;;17.85;;
72864;SDS011;61000;48.120;11.548;2022-12-01T12:04:41;36.80;;;18.05;;
72864;SDS011;61000;48.120;11.548;2022-12-01T12:07:23;39.70;;;19.35;;
72864;SDS011;61000;48.120;11.548;2022-12-01T12:10:00;36.28;;;17.98;;
72864;SDS011;61000;48.120;11.548;2022-12-01T12:12:51;34.85;;;17.88;;
72864;SDS011;61000;48.120;11.548;2022-12-01T12:15:32;39.33;;;17.77;;
72864;SDS011;61000;48.120;11.548;2022-12-01T12:18:22;35.72;;;17.52;;
72864;SDS011;61000;48.120;11.548;2022-12-01T12:21:07;33.72;;;17.40;;
72864;SDS011;61000;48.120;11.548;2022-12-01T12:23:47;37.75;;;17.80;;
72864;SDS011;61000;48.120;11.548;2022-12-01T12:26:27;32.35;;;18.13;;
72864;SDS011;61000;48.120;11.548;2022-12-01T12:29:03;33.80;;;16.75;;
72864;SDS011;61000;48.120;11.548;2022-12-01T12:31:46;34.17;;;16.13;;
72864;SDS011;61000;48.120;11.548;2022-12-01T12:34:31;32.03;;;17.05;;
72864;SDS011;61000;48.120;11.548;2022-12-01T12:37:12;32.90;;;16.77;;
72864;SDS011;61000;48.120;11.548;2022-12-01T12:39:53;40.78;;;17.20;;
72864;SDS011;61000;48.120;11.548;2022-12-01T12:42:42;31.88;;;16.95;;
72864;SDS011;61000;48.120;11.548;2022-12-01T12:45:19;35.05;;;16.55;;
72864;SDS011;61000;48.120;11.548;2022-12-01T12:47:57;35.25;;;17.77;;
72864;SDS011;61000;48.120;11.548;2022-12-01T12:50:37;36.30;;;16.00;;
72864;SDS011;61000;48.120;11.548;2022-12-01T12:53:09;40.15;;;17.48;;
72864;SDS011;61000;48.120;11.548;2022-12-01T12:55:42;35.30;;;16.92;;
72864;SDS011;61000;48.120;11.548;2022-12-01T12:58:12;36.47;;;19.02;;
72864;SDS011;61000;48.120;11.548;2022-12-01T13:00:45;35.22;;;18.17;;
72864;SDS011;61000;48.120;11.548;2022-12-01T13:03:18;39.08;;;16.60;;
72864;SDS011;61000;48.120;11.548;2022-12-01T13:05:51;37.25;;;18.63;;
72864;SDS011;61000;48.120;11.548;2022-12-01T13:08:26;34.58;;;16.30;;
72864;SDS011;61000;48.120;11.548;2022-12-01T13:10:58;33.70;;;16.65;;
72864;SDS011;61000;48.120;11.548;2022-12-01T13:13:29;39.95;;;18.05;;
72864;SDS011;61000;48.120;11.548;2022-12-01T13:16:01;29.17;;;16.80;;
72864;SDS011;61000;48.120;11.548;2022-12-01T13:18:34;33.20;;;16.38;;
72864;SDS011;61000;48.120;11.548;2022-12-01T13:21:06;33.72;;;17.75;;
72864;SDS011;61000;48.120;11.548;2022-12-01T13:23:38;36.60;;;18.65;;
72864;SDS011;61000;48.120;11.548;2022-12-01T13:26:05;31.08;;;17.48;;
72864;SDS011;61000;48.120;11.548;2022-12-01T13:28:36;33.17;;;16.55;;
72864;SDS011;61000;48.120;11.548;2022-12-01T13:31:08;33.05;;;16.13;;
72864;SDS011;61000;48.120;11.548;2022-12-01T13:33:43;31.20;;;16.25;;
72864;SDS011;61000;48.120;11.548;2022-12-01T13:36:18;30.98;;;16.50;;
72864;SDS011;61000;48.120;11.548;2022-12-01T13:38:50;32.75;;;17.17;;
72864;SDS011;61000;48.120;11.548;2022-12-01T13:41:22;33.20;;;17.55;;
72864;SDS011;61000;48.120;11.548;2022-12-01T13:43:57;36.20;;;18.08;;
72864;SDS011;61000;48.120;11.548;2022-12-01T13:46:27;34.13;;;15.10;;
72864;SDS011;61000;48.120;11.548;2022-12-01T13:48:58;47.60;;;18.60;;
72864;SDS011;61000;48.120;11.548;2022-12-01T13:51:26;37.75;;;17.70;;
72864;SDS011;61000;48.120;11.548;2022-12-01T13:54:34;37.78;;;16.67;;
72864;SDS011;61000;48.120;11.548;2022-12-01T13:57:02;30.10;;;16.45;;
72864;SDS011;61000;48.120;11.548;2022-12-01T13:59:39;33.30;;;17.10;;
72864;SDS011;61000;48.120;11.548;2022-12-01T14:02:37;33.15;;;17.25;;
72864;SDS011;61000;48.120;11.548;2022-12-01T14:08:12;36.33;;;18.00;;
72864;SDS011;61000;48.120;11.548;2022-12-01T14:10:42;36.92;;;17.85;;
72864;SDS011;61000;48.120;11.548;2022-12-01T14:13:18;34.97;;;18.10;;
72864;SDS011;61000;48.120;11.548;2022-12-01T14:15:49;43.10;;;18.75;;
72864;SDS011;61000;48.120;11.548;2022-12-01T14:18:26;39.47;;;19.00;;
72864;SDS011;61000;48.120;11.548;2022-12-01T14:20:59;33.08;;;17.98;;
72864;SDS011;61000;48.120;11.548;2022-12-01T14:23:29;41.90;;;22.17;;
72864;SDS011;61000;48.120;11.548;2022-12-01T14:26:01;35.95;;;19.05;;
72864;SDS011;61000;48.120;11.548;2022-12-01T14:34:58;33.92;;;16.38;;
72864;SDS011;61000;48.120;11.548;2022-12-01T14:37:34;32.78;;;16.92;;
72864;SDS011;61000;48.120;11.548;2022-12-01T14:40:24;34.55;;;16.83;;
72864;SDS011;61000;48.120;11.548;2022-12-01T14:42:55;34.45;;;17.88;;
72864;SDS011;61000;48.120;11.548;2022-12-01T14:45:45;33.72;;;17.05;;